Time;durP1;ratioP1;P1;durP2;ratioP2;P2;SDS_P1;SDS_P2;PMS_P1;PMS_P2;Temp;Humidity;BMP_temperature;BMP_pressure;BME280_temperature;BME280_humidity;BME280_pressure;Samples;Min_cycle;Max_cycle;Signal;HPM_P1;HPM_P2
2021/06/10 00:00:48;;;;;;;3.65;3.03;;;19.70;99.90;;;;;;5094547;28;20202;-78
2021/06/10 00:03:14;;;;;;;6.60;2.60;;;19.80;99.90;;;;;;5091172;28;20208;-78
2021/06/10 00:05:40;;;;;;;14.10;3.42;;;19.90;99.90;;;;;;5072755;28;20166;-78
2021/06/10 00:08:07;;;;;;;4.20;3.38;;;20.00;99.90;;;;;;5072012;28;20177;-78
2021/06/10 00:10:34;;;;;;;4.80;2.97;;;20.00;99.90;;;;;;5072160;28;20186;-78
2021/06/10 00:13:00;;;;;;;2.80;2.60;;;20.10;99.90;;;;;;5072571;28;20155;-78
2021/06/10 00:15:29;;;;;;;6.57;3.00;;;19.80;99.90;;;;;;5072347;28;20170;-78
2021/06/10 00:17:55;;;;;;;3.47;3.13;;;19.80;99.90;;;;;;5071953;28;20208;-78
2021/06/10 00:20:23;;;;;;;3.20;2.90;;;19.60;99.90;;;;;;5072549;28;20218;-78
2021/06/10 00:22:50;;;;;;;2.80;2.60;;;19.60;99.90;;;;;;5072225;28;20178;-78
2021/06/10 00:25:16;;;;;;;4.25;3.50;;;19.50;99.90;;;;;;5072125;28;20170;-77
2021/06/10 00:27:42;;;;;;;7.03;3.05;;;19.40;99.90;;;;;;5072003;28;20665;-77
2021/06/10 00:30:11;;;;;;;5.10;2.63;;;19.50;99.90;;;;;;5072008;28;20261;-78
2021/06/10 00:32:37;;;;;;;7.25;2.45;;;19.40;99.90;;;;;;5072352;28;20163;-77
2021/06/10 00:35:04;;;;;;;17.70;3.00;;;19.50;99.90;;;;;;5072337;28;20171;-77
2021/06/10 00:37:30;;;;;;;3.53;3.22;;;19.30;99.90;;;;;;5072334;28;20190;-77
2021/06/10 00:39:56;;;;;;;6.03;3.50;;;19.40;99.90;;;;;;5071918;28;20715;-77
2021/06/10 00:42:22;;;;;;;4.78;3.13;;;19.30;99.90;;;;;;5072094;28;20179;-77
2021/06/10 00:44:48;;;;;;;3.50;3.20;;;19.50;99.90;;;;;;5072317;28;20216;-77
2021/06/10 00:47:14;;;;;;;3.25;2.95;;;19.60;99.90;;;;;;5071726;28;20179;-77
2021/06/10 00:49:39;;;;;;;4.20;3.17;;;19.30;99.90;;;;;;5071673;28;20218;-77
2021/06/10 00:52:05;;;;;;;9.63;3.95;;;19.30;99.90;;;;;;5072667;28;20245;-77
2021/06/10 00:54:31;;;;;;;10.88;2.97;;;19.30;99.90;;;;;;5075898;28;20165;-78
2021/06/10 00:56:58;;;;;;;5.00;2.70;;;19.20;99.90;;;;;;5074040;28;20622;-78
2021/06/10 00:59:23;;;;;;;4.85;3.15;;;19.00;99.90;;;;;;5059068;28;20293;-77
2021/06/10 01:01:49;;;;;;;5.78;3.10;;;19.00;99.90;;;;;;5078017;28;20194;-78
2021/06/10 01:04:15;;;;;;;3.47;3.17;;;19.00;99.90;;;;;;5077715;28;20173;-78
2021/06/10 01:06:59;;;;;;;4.38;3.40;;;19.00;99.90;;;;;;5077761;28;20201;-77
2021/06/10 01:09:36;;;;;;;4.43;3.60;;;19.20;99.90;;;;;;5077649;28;20174;-79
2021/06/10 01:12:25;;;;;;;4.35;3.47;;;19.30;99.90;;;;;;5077265;28;20188;-78
2021/06/10 01:15:05;;;;;;;4.10;3.58;;;19.30;99.90;;;;;;5091544;22;20695;-79
2021/06/10 01:17:33;;;;;;;7.40;3.78;;;19.20;99.90;;;;;;5070622;28;20174;-79
2021/06/10 01:20:02;;;;;;;3.35;3.05;;;19.20;99.90;;;;;;5073496;28;20195;-79
2021/06/10 01:22:40;;;;;;;4.43;3.38;;;19.20;99.90;;;;;;5075317;28;20169;-79
2021/06/10 01:25:35;;;;;;;2.88;2.60;;;19.10;99.90;;;;;;5074732;28;20170;-79
2021/06/10 01:28:11;;;;;;;5.25;3.35;;;18.90;99.90;;;;;;5073175;28;20183;-79
2021/06/10 01:30:41;;;;;;;3.80;3.40;;;18.90;99.90;;;;;;5073723;28;20187;-79
2021/06/10 01:33:11;;;;;;;3.88;3.58;;;19.00;99.90;;;;;;5074815;28;20254;-79
2021/06/10 01:35:41;;;;;;;7.28;3.70;;;19.00;99.90;;;;;;5074867;28;20173;-79
2021/06/10 01:38:09;;;;;;;5.47;3.55;;;19.00;99.90;;;;;;5074492;28;20162;-79
2021/06/10 01:40:35;;;;;;;8.60;4.25;;;19.00;99.90;;;;;;5074741;28;20225;-79
2021/06/10 01:43:01;;;;;;;9.02;3.85;;;19.00;99.90;;;;;;5074894;28;20198;-79
2021/06/10 01:45:29;;;;;;;6.85;3.25;;;19.00;99.90;;;;;;5074485;28;20220;-79
2021/06/10 01:47:55;;;;;;;10.23;4.30;;;19.00;99.90;;;;;;5073221;28;20163;-79
2021/06/10 01:50:23;;;;;;;6.78;3.92;;;19.10;99.90;;;;;;5074241;28;20197;-79
2021/06/10 01:52:50;;;;;;;8.10;4.05;;;18.90;99.90;;;;;;5074479;28;20155;-79
2021/06/10 01:55:18;;;;;;;4.03;3.70;;;18.60;99.90;;;;;;5074293;28;20300;-79
2021/06/10 01:57:45;;;;;;;10.23;3.47;;;18.50;99.90;;;;;;5074191;28;20162;-79
2021/06/10 02:00:13;;;;;;;5.80;4.10;;;18.50;99.90;;;;;;5074180;28;20259;-79
2021/06/10 02:02:40;;;;;;;7.55;3.67;;;18.60;99.90;;;;;;5073889;28;20670;-79
2021/06/10 02:05:08;;;;;;;4.55;4.15;;;18.80;99.90;;;;;;5074067;28;20192;-79
2021/06/10 02:07:38;;;;;;;8.30;3.50;;;18.70;99.90;;;;;;5073991;28;20631;-79
2021/06/10 02:10:06;;;;;;;4.03;3.65;;;18.70;99.90;;;;;;5071621;28;20226;-80
2021/06/10 02:12:32;;;;;;;5.30;3.85;;;18.60;99.90;;;;;;5074428;28;20665;-79
2021/06/10 02:15:01;;;;;;;5.68;4.35;;;18.70;99.90;;;;;;5072794;28;20546;-79
2021/06/10 02:17:27;;;;;;;4.65;3.85;;;18.60;99.90;;;;;;5073358;28;20254;-79
2021/06/10 02:19:53;;;;;;;5.03;3.58;;;18.40;99.90;;;;;;5073317;28;20319;-79
2021/06/10 02:22:18;;;;;;;4.20;3.80;;;18.50;99.90;;;;;;5072435;28;20631;-79
2021/06/10 02:24:44;;;;;;;11.63;3.75;;;18.50;99.90;;;;;;5073790;28;20166;-78
2021/06/10 02:27:09;;;;;;;6.53;3.65;;;18.50;99.90;;;;;;5073341;28;20171;-79
2021/06/10 02:29:37;;;;;;;10.05;4.03;;;18.60;99.90;;;;;;5073641;28;20163;-79
2021/06/10 02:32:03;;;;;;;6.60;4.35;;;18.60;99.90;;;;;;5073276;28;20186;-79
2021/06/10 02:34:28;;;;;;;9.30;3.83;;;18.50;99.90;;;;;;5073134;28;20311;-79
2021/06/10 02:36:54;;;;;;;5.93;5.15;;;18.40;99.90;;;;;;5072079;28;20170;-79
2021/06/10 02:39:21;;;;;;;8.57;5.43;;;18.40;99.90;;;;;;5073463;28;20685;-79
2021/06/10 02:41:52;;;;;;;12.02;6.70;;;18.30;99.90;;;;;;5071891;28;20181;-79
2021/06/10 02:44:18;;;;;;;7.18;6.45;;;18.30;99.90;;;;;;5073119;28;20162;-78
2021/06/10 02:46:45;;;;;;;8.13;7.32;;;18.40;99.90;;;;;;5072918;28;20166;-81
2021/06/10 02:49:12;;;;;;;8.18;7.45;;;18.30;99.90;;;;;;5073214;28;20166;-81
2021/06/10 02:51:38;;;;;;;8.48;7.38;;;18.40;99.90;;;;;;5073205;28;20185;-80
2021/06/10 02:54:11;;;;;;;10.48;7.20;;;18.50;99.90;;;;;;5073154;28;20208;-80
2021/06/10 02:56:37;;;;;;;7.03;6.53;;;18.50;99.90;;;;;;5071322;28;20265;-80
2021/06/10 02:59:05;;;;;;;12.95;7.88;;;18.40;99.90;;;;;;5072808;28;20170;-80
2021/06/10 03:01:36;;;;;;;8.60;7.85;;;18.20;99.90;;;;;;5072836;28;20646;-80
2021/06/10 03:04:04;;;;;;;8.07;6.47;;;18.20;99.90;;;;;;5072864;28;20163;-80
2021/06/10 03:06:30;;;;;;;8.93;7.20;;;18.30;99.90;;;;;;5073072;28;20247;-80
2021/06/10 03:08:56;;;;;;;7.05;6.47;;;18.40;99.90;;;;;;5071246;28;20189;-80
2021/06/10 03:11:22;;;;;;;7.13;6.53;;;18.50;99.90;;;;;;5071994;28;20194;-81
2021/06/10 03:13:49;;;;;;;11.25;7.75;;;18.60;99.90;;;;;;5072895;28;20213;-80
2021/06/10 03:16:16;;;;;;;15.77;7.45;;;18.70;99.90;;;;;;5072717;28;20269;-81
2021/06/10 03:18:42;;;;;;;10.10;7.45;;;18.40;99.90;;;;;;5072937;28;20163;-82
2021/06/10 03:21:08;;;;;;;13.70;6.82;;;18.30;99.90;;;;;;5072506;28;20263;-81
2021/06/10 03:23:34;;;;;;;13.48;7.80;;;18.40;99.90;;;;;;5072730;28;20177;-81
2021/06/10 03:26:14;;;;;;;11.57;8.10;;;18.40;99.90;;;;;;5072650;28;20170;-81
2021/06/10 03:28:41;;;;;;;8.85;7.95;;;18.40;99.90;;;;;;5072727;28;20622;-81
2021/06/10 03:31:06;;;;;;;8.10;7.32;;;18.40;99.90;;;;;;5072526;28;20194;-80
2021/06/10 03:33:32;;;;;;;8.43;7.53;;;18.20;99.90;;;;;;5072590;28;20166;-81
2021/06/10 03:35:58;;;;;;;9.52;7.03;;;18.20;99.90;;;;;;5072483;28;20193;-80
2021/06/10 03:38:25;;;;;;;9.02;7.65;;;18.10;99.90;;;;;;5072178;28;20507;-81
2021/06/10 03:40:54;;;;;;;9.00;7.65;;;18.30;99.90;;;;;;5070842;28;20213;-81
2021/06/10 03:43:21;;;;;;;10.60;7.88;;;18.40;99.90;;;;;;5072542;28;20159;-81
2021/06/10 03:45:46;;;;;;;8.77;7.97;;;18.20;99.90;;;;;;5072308;28;20167;-81
2021/06/10 03:48:12;;;;;;;9.73;8.75;;;18.20;99.90;;;;;;5072499;28;20497;-81
2021/06/10 03:50:38;;;;;;;9.40;8.50;;;18.30;99.90;;;;;;5071389;28;20182;-80
2021/06/10 03:53:05;;;;;;;10.98;8.38;;;18.30;99.90;;;;;;5072782;28;20170;-80
2021/06/10 03:55:32;;;;;;;11.32;8.18;;;18.40;99.90;;;;;;5072625;28;20171;-82
2021/06/10 03:57:58;;;;;;;10.45;8.70;;;18.20;99.90;;;;;;5072524;28;20505;-81
2021/06/10 04:00:24;;;;;;;9.00;8.20;;;18.30;99.90;;;;;;5072519;28;20288;-81
2021/06/10 04:02:59;;;;;;;11.18;8.88;;;18.40;99.90;;;;;;5071076;28;20173;-80
2021/06/10 04:05:34;;;;;;;9.57;8.52;;;18.70;99.90;;;;;;5071016;28;20174;-81
2021/06/10 04:08:00;;;;;;;7.97;7.28;;;19.00;99.90;;;;;;5071122;28;20634;-80
2021/06/10 04:10:29;;;;;;;11.13;7.70;;;19.40;99.90;;;;;;5072030;28;20233;-80
2021/06/10 04:12:54;;;;;;;9.10;8.30;;;19.80;99.90;;;;;;5072103;28;20260;-81
2021/06/10 04:15:20;;;;;;;8.15;7.32;;;20.10;99.90;;;;;;5070560;28;20190;-80
2021/06/10 04:17:46;;;;;;;13.57;7.72;;;20.20;99.90;;;;;;5070876;28;20188;-81
2021/06/10 04:20:13;;;;;;;9.88;7.60;;;20.30;99.90;;;;;;5072223;28;20582;-81
2021/06/10 04:22:41;;;;;;;10.73;7.00;;;20.20;99.90;;;;;;5071745;28;20224;-81
2021/06/10 04:25:07;;;;;;;10.55;7.22;;;20.00;99.90;;;;;;5072357;28;20227;-80
2021/06/10 04:27:33;;;;;;;13.77;6.80;;;20.00;99.90;;;;;;5070826;28;20916;-81
2021/06/10 04:29:59;;;;;;;8.95;8.05;;;19.90;99.90;;;;;;5071967;28;20206;-80
2021/06/10 04:32:25;;;;;;;12.57;7.30;;;19.80;99.90;;;;;;5072195;28;20617;-80
2021/06/10 04:34:50;;;;;;;10.10;6.85;;;19.50;99.90;;;;;;5075056;28;20170;-80
2021/06/10 04:37:18;;;;;;;14.40;8.10;;;19.60;99.90;;;;;;5076235;28;20167;-81
2021/06/10 04:39:43;;;;;;;9.02;8.10;;;19.60;99.90;;;;;;5074916;28;20819;-80
2021/06/10 04:42:09;;;;;;;13.43;7.82;;;19.70;99.90;;;;;;5075529;28;20177;-80
2021/06/10 04:44:35;;;;;;;14.18;8.10;;;19.70;99.90;;;;;;5075635;28;20171;-81
2021/06/10 04:47:02;;;;;;;15.32;8.18;;;19.70;99.90;;;;;;5075956;28;20177;-81
2021/06/10 04:49:28;;;;;;;12.50;8.38;;;19.80;99.90;;;;;;5075359;28;20198;-80
2021/06/10 04:51:53;;;;;;;8.82;7.85;;;19.90;99.90;;;;;;5076135;28;20586;-80
2021/06/10 04:54:19;;;;;;;17.65;8.68;;;20.10;99.90;;;;;;5075739;28;20175;-80
2021/06/10 04:56:44;;;;;;;10.55;6.70;;;20.10;99.90;;;;;;5075528;28;20509;-79
2021/06/10 04:59:10;;;;;;;10.25;7.70;;;20.10;99.90;;;;;;5075922;28;20277;-80
2021/06/10 05:01:36;;;;;;;12.00;6.95;;;20.30;99.90;;;;;;5075733;28;20628;-80
2021/06/10 05:04:01;;;;;;;20.38;7.55;;;20.40;99.90;;;;;;5075487;28;20224;-80
2021/06/10 05:06:27;;;;;;;14.07;6.60;;;20.30;99.90;;;;;;5075873;28;20163;-80
2021/06/10 05:08:53;;;;;;;7.78;7.07;;;20.30;99.90;;;;;;5075359;28;20249;-80
2021/06/10 05:11:18;;;;;;;11.38;6.95;;;20.40;99.90;;;;;;5075443;28;20677;-80
2021/06/10 05:13:44;;;;;;;7.88;7.07;;;20.50;99.90;;;;;;5075288;28;20170;-80
2021/06/10 05:16:09;;;;;;;8.35;6.72;;;20.60;99.90;;;;;;5075740;28;20170;-80
2021/06/10 05:18:35;;;;;;;7.13;6.43;;;20.70;99.90;;;;;;5075301;28;20671;-80
2021/06/10 05:21:01;;;;;;;7.68;7.05;;;20.90;99.90;;;;;;5076100;28;20193;-80
2021/06/10 05:23:26;;;;;;;6.90;6.30;;;21.00;99.90;;;;;;5076541;28;20171;-79
2021/06/10 05:25:52;;;;;;;7.97;6.57;;;21.00;99.90;;;;;;5076711;28;20669;-81
2021/06/10 05:28:18;;;;;;;7.35;6.70;;;21.10;99.90;;;;;;5075356;28;20580;-79
2021/06/10 05:30:44;;;;;;;7.13;6.35;;;21.30;99.90;;;;;;5092132;28;20205;-79
2021/06/10 05:33:09;;;;;;;7.75;6.78;;;21.20;99.90;;;;;;5091632;28;20150;-79
2021/06/10 05:35:35;;;;;;;9.88;7.75;;;21.20;99.90;;;;;;5093247;28;20182;-80
2021/06/10 05:38:00;;;;;;;9.55;6.88;;;21.00;99.90;;;;;;5091000;28;20526;-80
2021/06/10 05:40:26;;;;;;;8.18;7.57;;;20.90;99.90;;;;;;5078610;28;20744;-80
2021/06/10 05:42:53;;;;;;;9.13;7.93;;;21.00;99.90;;;;;;5078611;28;20158;-80
2021/06/10 05:45:19;;;;;;;9.60;8.65;;;21.10;99.90;;;;;;5075188;28;20527;-79
2021/06/10 05:47:44;;;;;;;9.02;8.20;;;20.90;99.90;;;;;;5082620;28;20211;-83
2021/06/10 05:50:11;;;;;;;8.85;8.10;;;20.70;99.90;;;;;;5079696;28;20232;-80
2021/06/10 05:52:38;;;;;;;14.98;10.52;;;20.60;99.90;;;;;;5079743;28;20173;-81
2021/06/10 05:55:05;;;;;;;12.40;10.55;;;20.60;99.90;;;;;;5081766;28;20185;-80
2021/06/10 05:57:31;;;;;;;13.05;9.02;;;20.60;99.90;;;;;;5081731;28;20708;-80
2021/06/10 05:59:56;;;;;;;8.68;7.88;;;20.50;99.90;;;;;;5082215;28;20222;-81
2021/06/10 06:02:22;;;;;;;7.72;7.00;;;20.60;99.90;;;;;;5079596;28;20197;-80
2021/06/10 06:04:48;;;;;;;6.88;6.13;;;20.50;99.90;;;;;;5078422;28;20534;-79
2021/06/10 06:07:13;;;;;;;8.10;6.63;;;20.70;99.90;;;;;;5076099;28;21045;-80
2021/06/10 06:09:39;;;;;;;12.38;5.65;;;20.90;99.90;;;;;;5074864;28;20202;-80
2021/06/10 06:12:08;;;;;;;8.73;5.30;;;21.20;99.90;;;;;;5073580;28;20206;-80
2021/06/10 06:14:36;;;;;;;6.75;4.82;;;21.20;99.90;;;;;;5074165;28;20189;-80
2021/06/10 06:17:05;;;;;;;7.50;5.43;;;21.10;99.90;;;;;;5073505;28;20163;-80
2021/06/10 06:19:32;;;;;;;10.45;4.22;;;21.30;99.90;;;;;;5072636;28;20690;-80
2021/06/10 06:21:58;;;;;;;6.75;4.75;;;21.30;99.90;;;;;;5072308;28;20184;-80
2021/06/10 06:24:23;;;;;;;4.75;4.35;;;21.40;99.90;;;;;;5072472;28;20171;-81
2021/06/10 06:26:49;;;;;;;10.57;3.53;;;21.40;99.90;;;;;;5073681;28;20175;-80
2021/06/10 06:29:15;;;;;;;9.75;4.70;;;21.40;99.90;;;;;;5071917;28;20188;-81
2021/06/10 06:31:40;;;;;;;9.52;3.75;;;21.40;99.90;;;;;;5072931;28;20266;-81
2021/06/10 06:34:06;;;;;;;8.85;4.43;;;21.30;99.90;;;;;;5073311;28;20159;-80
2021/06/10 06:36:32;;;;;;;11.88;5.05;;;21.30;99.90;;;;;;5073384;28;20167;-81
2021/06/10 06:38:58;;;;;;;4.65;4.18;;;21.40;99.90;;;;;;5073088;28;20189;-81
2021/06/10 06:41:24;;;;;;;20.38;4.45;;;21.40;99.90;;;;;;5073436;28;20240;-82
2021/06/10 06:43:50;;;;;;;9.02;4.60;;;21.60;99.90;;;;;;5073319;28;20166;-81
2021/06/10 06:46:15;;;;;;;4.65;3.00;;;21.80;99.90;;;;;;5073105;28;20296;-81
2021/06/10 06:48:41;;;;;;;5.25;3.15;;;22.00;99.90;;;;;;5072737;28;20158;-78
2021/06/10 06:51:08;;;;;;;3.83;3.00;;;22.30;99.90;;;;;;5073272;28;20234;-79
2021/06/10 06:53:37;;;;;;;12.65;3.50;;;22.70;99.90;;;;;;5073282;28;20230;-81
2021/06/10 06:56:03;;;;;;;4.50;2.78;;;23.50;99.90;;;;;;5073059;28;20205;-80
2021/06/10 06:58:29;;;;;;;5.47;2.28;;;24.00;99.90;;;;;;5073235;28;20174;-82
2021/06/10 07:00:56;;;;;;;3.65;2.00;;;25.10;99.90;;;;;;5075374;28;20194;-84
2021/06/10 07:03:21;;;;;;;7.18;1.80;;;25.90;99.90;;;;;;5076598;28;20159;-85
2021/06/10 07:05:48;;;;;;;7.35;2.03;;;26.60;99.90;;;;;;5074749;28;20173;-82
2021/06/10 07:08:13;;;;;;;2.85;1.40;;;26.70;99.90;;;;;;5074406;28;20691;-82
2021/06/10 07:10:39;;;;;;;1.90;1.70;;;27.70;99.90;;;;;;5074264;28;20230;-83
2021/06/10 07:13:05;;;;;;;2.30;1.55;;;28.20;99.90;;;;;;5072644;28;20568;-81
2021/06/10 07:15:31;;;;;;;2.67;1.73;;;28.30;99.70;;;;;;5086627;22;20210;-78
2021/06/10 07:17:56;;;;;;;1.95;1.70;;;28.10;99.00;;;;;;5071226;28;20171;-78
2021/06/10 07:20:23;;;;;;;2.88;1.60;;;28.60;98.20;;;;;;5071559;28;20251;-78
2021/06/10 07:22:49;;;;;;;5.05;2.08;;;28.80;96.90;;;;;;5072105;28;20178;-78
2021/06/10 07:25:16;;;;;;;2.50;1.67;;;29.00;96.30;;;;;;5072801;28;20327;-94
2021/06/10 07:27:43;;;;;;;6.82;1.52;;;29.90;95.00;;;;;;5074619;28;20166;-83
2021/06/10 07:30:09;;;;;;;11.90;1.73;;;29.90;94.40;;;;;;5073513;28;20354;-88
2021/06/10 07:32:36;;;;;;;5.07;1.23;;;30.50;93.60;;;;;;5072868;28;20186;-88
2021/06/10 07:35:03;;;;;;;3.20;1.40;;;30.60;92.70;;;;;;5074385;28;20499;-93
2021/06/10 07:37:29;;;;;;;4.00;1.42;;;30.60;92.30;;;;;;5075690;28;20174;-92
2021/06/10 07:39:55;;;;;;;1.20;1.10;;;30.40;92.40;;;;;;5073241;28;20185;-81
2021/06/10 07:42:21;;;;;;;3.85;1.30;;;30.00;92.20;;;;;;5074122;28;20510;-84
2021/06/10 07:44:47;;;;;;;8.15;1.48;;;29.60;92.50;;;;;;5073045;28;20174;-94
2021/06/10 07:47:13;;;;;;;6.13;1.10;;;28.80;93.60;;;;;;5072397;28;20271;-83
2021/06/10 07:49:39;;;;;;;2.83;1.60;;;29.40;93.80;;;;;;5077996;28;20653;-83
2021/06/10 07:52:05;;;;;;;2.20;1.10;;;29.30;93.40;;;;;;5087299;28;20154;-82
2021/06/10 07:54:31;;;;;;;3.03;1.10;;;28.70;94.40;;;;;;5079200;28;20189;-82
2021/06/10 07:56:57;;;;;;;1.23;1.13;;;28.10;95.00;;;;;;5096458;28;20155;-81
2021/06/10 07:59:26;;;;;;;1.67;1.08;;;26.90;96.60;;;;;;5081770;28;20720;-82
2021/06/10 08:01:53;;;;;;;2.65;1.50;;;26.60;97.10;;;;;;5073289;28;20166;-87
2021/06/10 08:04:19;;;;;;;1.65;1.55;;;26.10;97.50;;;;;;5072721;28;20185;-84
2021/06/10 08:06:45;;;;;;;1.50;1.40;;;25.60;98.60;;;;;;5056010;28;20209;-85
2021/06/10 08:09:11;;;;;;;7.53;1.60;;;25.50;98.90;;;;;;5075165;28;20162;-80
2021/06/10 08:11:37;;;;;;;2.22;1.50;;;25.40;99.20;;;;;;5059946;28;20281;-82
2021/06/10 08:14:03;;;;;;;7.95;1.52;;;25.40;99.50;;;;;;5077514;28;20182;-89
2021/06/10 08:16:29;;;;;;;1.42;1.30;;;25.20;99.90;;;;;;5078152;28;20185;-82
2021/06/10 08:18:56;;;;;;;2.05;1.60;;;24.90;99.90;;;;;;5078324;28;20162;-91
2021/06/10 08:21:21;;;;;;;6.95;2.10;;;24.60;99.90;;;;;;5077124;28;20264;-80
2021/06/10 08:23:47;;;;;;;3.13;1.70;;;24.50;99.90;;;;;;5076848;28;20190;-81
2021/06/10 08:26:13;;;;;;;7.30;1.40;;;24.30;99.90;;;;;;5076818;28;20183;-81
2021/06/10 08:28:38;;;;;;;2.50;1.23;;;24.40;99.90;;;;;;5076471;28;20236;-81
2021/06/10 08:31:04;;;;;;;11.65;1.50;;;24.50;99.90;;;;;;5077921;28;20239;-81
2021/06/10 08:33:31;;;;;;;4.65;1.45;;;24.40;99.90;;;;;;5075135;28;20163;-81
2021/06/10 08:35:57;;;;;;;1.30;1.20;;;24.40;99.90;;;;;;5074943;28;20619;-81
2021/06/10 08:38:27;;;;;;;2.25;1.42;;;24.60;99.90;;;;;;5075492;28;20181;-81
2021/06/10 08:40:52;;;;;;;18.48;1.80;;;24.90;99.90;;;;;;5074734;28;20191;-81
2021/06/10 08:43:18;;;;;;;4.63;1.20;;;24.90;99.90;;;;;;5074794;28;20184;-81
2021/06/10 08:45:46;;;;;;;2.75;1.30;;;24.90;99.90;;;;;;5076275;28;20174;-92
2021/06/10 08:48:12;;;;;;;5.28;1.40;;;25.00;99.90;;;;;;5078091;28;20684;-80
2021/06/10 08:50:38;;;;;;;2.33;2.00;;;25.10;99.90;;;;;;5078650;28;20202;-82
2021/06/10 08:53:07;;;;;;;3.85;1.90;;;25.20;99.90;;;;;;5078196;28;20224;-81
2021/06/10 08:55:34;;;;;;;1.45;1.20;;;25.20;99.90;;;;;;5064399;28;20167;-88
2021/06/10 08:58:01;;;;;;;2.20;1.52;;;25.30;99.90;;;;;;5082875;28;20166;-92
2021/06/10 09:00:29;;;;;;;8.77;1.10;;;25.40;99.90;;;;;;5079676;28;20251;-96
2021/06/10 09:03:00;;;;;;;8.70;1.40;;;25.50;99.90;;;;;;5082724;28;20166;-91
2021/06/10 09:05:27;;;;;;;1.92;1.50;;;25.80;99.90;;;;;;5080889;28;20262;-93
2021/06/10 09:08:01;;;;;;;2.92;1.48;;;25.70;99.90;;;;;;5081169;28;20163;-83
2021/06/10 09:10:30;;;;;;;1.55;1.45;;;25.70;99.90;;;;;;5077731;28;20627;-89
2021/06/10 09:12:59;;;;;;;4.45;1.23;;;25.60;99.90;;;;;;5078359;28;20173;-96
2021/06/10 09:15:30;;;;;;;3.08;1.27;;;25.70;99.90;;;;;;5077829;28;20182;-96
2021/06/10 09:17:59;;;;;;;2.00;1.17;;;25.90;99.90;;;;;;5076252;28;20177;-78
2021/06/10 09:20:26;;;;;;;3.38;1.15;;;25.70;99.90;;;;;;5074966;28;20214;-79
2021/06/10 09:23:17;;;;;;;1.10;1.00;;;25.70;99.90;;;;;;5075350;28;20154;-80
2021/06/10 09:25:46;;;;;;;2.58;0.90;;;25.80;99.90;;;;;;5075792;28;20713;-80
2021/06/10 09:28:11;;;;;;;7.10;1.60;;;25.80;99.90;;;;;;5075639;28;20250;-79
2021/06/10 09:30:42;;;;;;;2.80;0.90;;;25.70;99.90;;;;;;5075077;28;20757;-80
2021/06/10 09:33:36;;;;;;;3.10;1.30;;;25.70;99.90;;;;;;5076552;28;20163;-79
2021/06/10 09:36:03;;;;;;;1.33;1.27;;;25.80;99.90;;;;;;5076937;28;20643;-95
2021/06/10 09:38:29;;;;;;;2.75;1.20;;;25.70;99.90;;;;;;5075888;28;20170;-87
2021/06/10 09:41:03;;;;;;;5.35;1.40;;;25.60;99.90;;;;;;5079128;28;20691;-96
2021/06/10 09:43:46;;;;;;;4.35;1.15;;;25.60;99.90;;;;;;5082581;28;20169;-81
2021/06/10 09:46:12;;;;;;;4.80;1.05;;;25.50;99.90;;;;;;5079715;28;20182;-91
2021/06/10 09:48:38;;;;;;;2.72;1.42;;;25.50;99.90;;;;;;5081790;28;20162;-82
2021/06/10 09:51:04;;;;;;;1.70;1.60;;;25.20;99.90;;;;;;5074464;28;20544;-87
2021/06/10 09:53:33;;;;;;;7.07;1.70;;;25.20;99.90;;;;;;5075979;28;20181;-85
2021/06/10 09:56:08;;;;;;;3.95;2.28;;;25.20;99.90;;;;;;5080938;28;20171;-89
2021/06/10 09:58:38;;;;;;;6.47;1.48;;;25.40;99.90;;;;;;5075828;28;20245;-90
2021/06/10 10:01:13;;;;;;;7.38;1.77;;;25.20;99.90;;;;;;5074512;28;20289;-81
2021/06/10 10:03:42;;;;;;;1.95;1.50;;;25.30;99.90;;;;;;5074736;28;20188;-82
2021/06/10 10:06:40;;;;;;;2.60;1.70;;;25.10;99.90;;;;;;5075066;28;20174;-93
2021/06/10 10:09:08;;;;;;;1.63;1.38;;;25.40;99.90;;;;;;5063545;28;20183;-92
2021/06/10 10:11:34;;;;;;;2.58;1.58;;;25.40;99.90;;;;;;5075457;28;20206;-91
2021/06/10 10:14:03;;;;;;;6.03;2.15;;;25.50;99.90;;;;;;5074369;28;20264;-89
2021/06/10 10:16:34;;;;;;;3.72;2.83;;;25.50;99.90;;;;;;5075981;28;20177;-83
2021/06/10 10:19:04;;;;;;;2.47;2.05;;;25.60;99.90;;;;;;5059384;28;20170;-81
2021/06/10 10:21:31;;;;;;;2.08;1.85;;;25.60;99.90;;;;;;5075689;28;20738;-81
2021/06/10 10:24:00;;;;;;;2.42;2.22;;;25.70;99.90;;;;;;5075659;28;20162;-90
2021/06/10 10:26:27;;;;;;;5.13;1.90;;;25.70;99.90;;;;;;5078019;28;20265;-81
2021/06/10 10:28:53;;;;;;;2.00;1.80;;;25.90;99.90;;;;;;5082559;28;20167;-81
2021/06/10 10:31:19;;;;;;;3.35;1.67;;;26.00;99.90;;;;;;5094968;28;20206;-82
2021/06/10 10:33:49;;;;;;;2.10;1.75;;;26.10;99.90;;;;;;5097654;28;20183;-86
2021/06/10 10:36:24;;;;;;;1.80;1.45;;;26.20;99.90;;;;;;5094061;28;20179;-82
2021/06/10 10:39:08;;;;;;;4.47;2.53;;;26.00;99.90;;;;;;5074971;28;20713;-84
2021/06/10 10:41:51;;;;;;;3.70;2.15;;;26.10;99.90;;;;;;5073784;28;20543;-86
2021/06/10 10:44:21;;;;;;;2.75;1.95;;;26.20;99.90;;;;;;5073962;28;20244;-83
2021/06/10 10:46:59;;;;;;;8.43;2.42;;;26.10;99.90;;;;;;5074113;28;20205;-83
2021/06/10 10:49:26;;;;;;;2.03;1.90;;;26.10;99.90;;;;;;5074415;28;20171;-83
2021/06/10 10:51:52;;;;;;;4.65;2.75;;;26.20;99.90;;;;;;5073244;28;20170;-82
2021/06/10 10:54:37;;;;;;;8.75;2.58;;;26.20;99.90;;;;;;5072767;28;20221;-92
2021/06/10 10:57:03;;;;;;;2.92;2.15;;;26.00;99.90;;;;;;5072765;28;20664;-83
2021/06/10 10:59:40;;;;;;;4.40;1.92;;;25.90;99.90;;;;;;5073185;28;20258;-85
2021/06/10 11:02:11;;;;;;;6.72;1.98;;;25.90;99.90;;;;;;5074275;28;20176;-83
2021/06/10 11:04:57;;;;;;;3.50;1.50;;;26.00;99.90;;;;;;5074401;28;20269;-86
2021/06/10 11:07:39;;;;;;;6.07;2.00;;;26.20;99.90;;;;;;5073187;28;20175;-83
2021/06/10 11:10:37;;;;;;;2.65;1.95;;;26.30;99.90;;;;;;5072562;28;20240;-83
2021/06/10 11:13:16;;;;;;;2.35;2.15;;;26.30;99.90;;;;;;5072481;28;20224;-84
2021/06/10 11:15:46;;;;;;;4.55;1.70;;;26.30;99.90;;;;;;5072909;28;20186;-83
2021/06/10 11:18:13;;;;;;;2.08;1.60;;;26.40;99.90;;;;;;5073719;28;20163;-84
2021/06/10 11:20:41;;;;;;;3.28;2.00;;;26.40;99.90;;;;;;5055968;28;20214;-83
2021/06/10 11:23:14;;;;;;;8.98;2.17;;;26.50;99.90;;;;;;5073235;28;20549;-83
2021/06/10 11:25:44;;;;;;;4.28;2.00;;;26.50;99.90;;;;;;5072349;28;20178;-83
2021/06/10 11:28:13;;;;;;;4.05;2.15;;;26.40;99.90;;;;;;5074181;28;20178;-83
2021/06/10 11:30:40;;;;;;;1.90;1.80;;;26.10;99.90;;;;;;5075305;28;20659;-82
2021/06/10 11:33:18;;;;;;;9.55;2.03;;;26.20;99.90;;;;;;5073550;28;20257;-88
2021/06/10 11:36:04;;;;;;;1.85;1.75;;;26.40;99.90;;;;;;5075072;28;20220;-83
2021/06/10 11:38:40;;;;;;;4.90;2.10;;;26.50;99.90;;;;;;5072760;28;20185;-82
2021/06/10 11:41:16;;;;;;;3.28;2.05;;;26.50;99.10;;;;;;5075258;28;20200;-81
2021/06/10 11:43:44;;;;;;;7.95;1.70;;;26.50;99.70;;;;;;5095544;28;20216;-82
2021/06/10 11:46:16;;;;;;;5.93;1.40;;;26.50;98.90;;;;;;5094649;28;20178;-82
2021/06/10 11:48:47;;;;;;;2.55;1.75;;;26.70;97.20;;;;;;5090964;28;20577;-81
2021/06/10 11:51:35;;;;;;;6.57;2.33;;;26.70;98.00;;;;;;5091762;28;20216;-80
2021/06/10 11:54:05;;;;;;;1.75;1.63;;;26.70;99.60;;;;;;5090289;28;20190;-82
2021/06/10 11:56:32;;;;;;;1.70;1.60;;;26.40;98.60;;;;;;5089918;28;20170;-82
2021/06/10 11:59:27;;;;;;;2.78;1.75;;;26.50;98.60;;;;;;5086987;28;20174;-83
2021/06/10 12:02:01;;;;;;;2.15;1.35;;;26.70;98.60;;;;;;5078228;28;20501;-84
2021/06/10 12:04:28;;;;;;;1.73;1.33;;;26.70;97.50;;;;;;5079758;28;20185;-83
2021/06/10 12:07:09;;;;;;;2.25;1.67;;;26.60;97.60;;;;;;5080227;28;20183;-82
2021/06/10 12:09:35;;;;;;;1.98;1.50;;;26.80;97.40;;;;;;5080668;28;20198;-82
2021/06/10 12:12:01;;;;;;;2.78;1.42;;;26.80;96.10;;;;;;5072874;28;20664;-82
2021/06/10 12:14:39;;;;;;;7.68;1.48;;;26.50;97.40;;;;;;5076260;28;20204;-80
2021/06/10 12:17:07;;;;;;;2.05;1.88;;;26.20;97.90;;;;;;5073226;28;20198;-86
2021/06/10 12:19:33;;;;;;;1.75;1.63;;;26.20;96.90;;;;;;5073573;28;20630;-82
2021/06/10 12:22:01;;;;;;;4.55;1.45;;;26.30;97.70;;;;;;5072156;28;20177;-82
2021/06/10 12:24:38;;;;;;;5.40;1.35;;;26.50;96.40;;;;;;5073743;28;20163;-82
2021/06/10 12:27:15;;;;;;;4.63;1.77;;;26.50;96.40;;;;;;5073327;28;20244;-82
2021/06/10 12:29:52;;;;;;;1.70;1.58;;;26.70;97.40;;;;;;5076849;28;21520;-82
2021/06/10 12:32:26;;;;;;;1.75;1.50;;;26.90;97.40;;;;;;5076183;28;20236;-81
2021/06/10 12:34:56;;;;;;;2.17;1.52;;;27.00;98.20;;;;;;5073338;28;20240;-90
2021/06/10 12:37:22;;;;;;;2.45;2.25;;;26.90;99.30;;;;;;5073535;28;20162;-80
2021/06/10 12:39:48;;;;;;;2.10;1.90;;;27.00;99.60;;;;;;5071251;28;20183;-80
2021/06/10 12:42:14;;;;;;;3.28;2.60;;;27.00;98.40;;;;;;5065948;28;20197;-82
2021/06/10 12:44:40;;;;;;;9.15;2.25;;;27.00;98.50;;;;;;5069239;28;20618;-82
2021/06/10 12:47:06;;;;;;;2.90;2.25;;;26.90;98.90;;;;;;5065814;28;20166;-82
2021/06/10 12:49:35;;;;;;;3.10;2.78;;;26.80;98.30;;;;;;5069758;28;20564;-81
2021/06/10 12:52:09;;;;;;;4.95;2.17;;;27.00;98.10;;;;;;5051335;28;20171;-82